Capitol Logistics 522




RJGG
Chubu Centrair International Airport
Nagoya, JP
RJAA
Tokyo-Narita International Airport
Tokyo, JP

Activity Log

Date Flight Route Aircraft Duration
No Flights Yet

Route Details

Aircraft Information
Group: Trans-Pacific Ops
Types: B744,B763,MD11
Route Data
Demand: V
Distance: 184nm
Duration: 1h 05m
Recm'd Route: CHITA3 BOGON Y79 GUPER Y81 RUTAS RUTASN
Origin Wx: RJGG 272200Z 31006KT 9999 FEW025 20/16 Q1003 NOSIG
Dest. Wx: RJAA 272200Z VRB02KT 9999 FEW015 BKN100 20/17 Q1000 NOSIG RMK 1CU015 6AC100 A2954
Notes:

Financial History
Total Freight: 0lbs
Average Load: 0lbs/flt
Fuel Used: 0lbs
Avg. Fuel Used: 0lbs/flt
Fuel Expense: $0
Avg. Fuel Expense: $0
Avg. Fuel Cost: $0/lbs
Total Gross Income: $0
Pilot Pay: $0
Total Expenses: $0
Total Revenue: $0
Average Revenue: $0